sensor_id;sensor_type;location;lat;lon;timestamp;pressure;altitude;pressure_sealevel;temperature
48854;BMP280;34673;52.808;17.856;2022-12-24T00:01:04;99338.78;;;4.63
48854;BMP280;34673;52.808;17.856;2022-12-24T00:03:32;99339.66;;;4.67
48854;BMP280;34673;52.808;17.856;2022-12-24T00:06:06;99344.78;;;4.67
48854;BMP280;34673;52.808;17.856;2022-12-24T00:08:34;99341.38;;;4.68
48854;BMP280;34673;52.808;17.856;2022-12-24T00:11:01;99339.66;;;4.67
48854;BMP280;34673;52.808;17.856;2022-12-24T00:13:28;99345.66;;;4.64
48854;BMP280;34673;52.808;17.856;2022-12-24T00:15:55;99347.34;;;4.67
48854;BMP280;34673;52.808;17.856;2022-12-24T00:18:22;99342.22;;;4.65
48854;BMP280;34673;52.808;17.856;2022-12-24T00:20:50;99345.63;;;4.68
48854;BMP280;34673;52.808;17.856;2022-12-24T00:23:17;99351.59;;;4.68
48854;BMP280;34673;52.808;17.856;2022-12-24T00:25:45;99341.38;;;4.68
48854;BMP280;34673;52.808;17.856;2022-12-24T00:28:13;99343.91;;;4.66
48854;BMP280;34673;52.808;17.856;2022-12-24T00:30:42;99345.63;;;4.66
48854;BMP280;34673;52.808;17.856;2022-12-24T00:33:10;99347.34;;;4.65
48854;BMP280;34673;52.808;17.856;2022-12-24T00:35:38;99345.66;;;4.64
48854;BMP280;34673;52.808;17.856;2022-12-24T00:38:07;99351.63;;;4.62
48854;BMP280;34673;52.808;17.856;2022-12-24T00:40:34;99350.75;;;4.60
48854;BMP280;34673;52.808;17.856;2022-12-24T00:43:01;99353.31;;;4.60
48854;BMP280;34673;52.808;17.856;2022-12-24T00:45:29;99355.88;;;4.63
48854;BMP280;34673;52.808;17.856;2022-12-24T00:47:56;99356.75;;;4.65
48854;BMP280;34673;52.808;17.856;2022-12-24T00:50:23;99360.13;;;4.64
48854;BMP280;34673;52.808;17.856;2022-12-24T00:52:50;99360.13;;;4.64
48854;BMP280;34673;52.808;17.856;2022-12-24T00:55:18;99355.00;;;4.64
48854;BMP280;34673;52.808;17.856;2022-12-24T00:57:45;99351.63;;;4.62
48854;BMP280;34673;52.808;17.856;2022-12-24T01:00:12;99355.00;;;4.61
48854;BMP280;34673;52.808;17.856;2022-12-24T01:02:41;99356.72;;;4.60
48854;BMP280;34673;52.808;17.856;2022-12-24T01:05:10;99361.88;;;4.59
48854;BMP280;34673;52.808;17.856;2022-12-24T01:07:42;99358.44;;;4.57
48854;BMP280;34673;52.808;17.856;2022-12-24T01:10:12;99362.72;;;4.56
48854;BMP280;34673;52.808;17.856;2022-12-24T01:12:40;99353.31;;;4.54
48854;BMP280;34673;52.808;17.856;2022-12-24T01:15:08;99355.88;;;4.48
48854;BMP280;34673;52.808;17.856;2022-12-24T01:17:35;99361.00;;;4.51
48854;BMP280;34673;52.808;17.856;2022-12-24T01:20:07;99361.00;;;4.46
48854;BMP280;34673;52.808;17.856;2022-12-24T01:22:35;99354.16;;;4.45
48854;BMP280;34673;52.808;17.856;2022-12-24T01:25:02;99355.03;;;4.46
48854;BMP280;34673;52.808;17.856;2022-12-24T01:27:30;99368.69;;;4.51
48854;BMP280;34673;52.808;17.856;2022-12-24T01:29:58;99360.16;;;4.46
48854;BMP280;34673;52.808;17.856;2022-12-24T01:32:25;99355.03;;;4.46
48854;BMP280;34673;52.808;17.856;2022-12-24T01:34:52;99357.56;;;4.47
48854;BMP280;34673;52.808;17.856;2022-12-24T01:37:19;99364.41;;;4.50
48854;BMP280;34673;52.808;17.856;2022-12-24T01:39:47;99363.53;;;4.48
48854;BMP280;34673;52.808;17.856;2022-12-24T01:42:18;99358.44;;;4.44
48854;BMP280;34673;52.808;17.856;2022-12-24T01:47:56;99366.97;;;4.47
48854;BMP280;34673;52.808;17.856;2022-12-24T01:50:24;99360.16;;;4.46
48854;BMP280;34673;52.808;17.856;2022-12-24T01:52:51;99365.28;;;4.42
48854;BMP280;34673;52.808;17.856;2022-12-24T01:55:19;99366.09;;;4.41
48854;BMP280;34673;52.808;17.856;2022-12-24T01:57:52;99363.53;;;4.41
48854;BMP280;34673;52.808;17.856;2022-12-24T02:00:21;99363.53;;;4.41
48854;BMP280;34673;52.808;17.856;2022-12-24T02:02:50;99358.44;;;4.41
48854;BMP280;34673;52.808;17.856;2022-12-24T02:05:27;99370.41;;;4.42
48854;BMP280;34673;52.808;17.856;2022-12-24T02:07:56;99366.97;;;4.40
48854;BMP280;34673;52.808;17.856;2022-12-24T02:10:24;99363.56;;;4.38
48854;BMP280;34673;52.808;17.856;2022-12-24T02:12:51;99365.25;;;4.33
48854;BMP280;34673;52.808;17.856;2022-12-24T02:15:19;99364.41;;;4.34
48854;BMP280;34673;52.808;17.856;2022-12-24T02:17:58;99361.81;;;4.31
48854;BMP280;34673;52.808;17.856;2022-12-24T02:20:46;99368.66;;;4.29
48854;BMP280;34673;52.808;17.856;2022-12-24T02:31:45;99375.47;;;4.24
48854;BMP280;34673;52.808;17.856;2022-12-24T02:34:44;99373.75;;;4.23
48854;BMP280;34673;52.808;17.856;2022-12-24T02:37:57;99373.75;;;4.20
48854;BMP280;34673;52.808;17.856;2022-12-24T02:40:30;99367.78;;;4.19
48854;BMP280;34673;52.808;17.856;2022-12-24T02:43:02;99366.94;;;4.17
48854;BMP280;34673;52.808;17.856;2022-12-24T02:45:32;99369.50;;;4.19
48854;BMP280;34673;52.808;17.856;2022-12-24T02:48:01;99378.03;;;4.19
48854;BMP280;34673;52.808;17.856;2022-12-24T02:50:28;99383.16;;;4.19
48854;BMP280;34673;52.808;17.856;2022-12-24T02:52:56;99380.56;;;4.15
48854;BMP280;34673;52.808;17.856;2022-12-24T02:55:43;99379.75;;;4.19
48854;BMP280;34673;52.808;17.856;2022-12-24T03:01:08;99380.56;;;4.18
48854;BMP280;34673;52.808;17.856;2022-12-24T03:04:01;99385.69;;;4.18
48854;BMP280;34673;52.808;17.856;2022-12-24T03:06:49;99378.88;;;4.14
48854;BMP280;34673;52.808;17.856;2022-12-24T03:09:29;99382.25;;;4.10
48854;BMP280;34673;52.808;17.856;2022-12-24T03:12:19;99383.97;;;4.08
48854;BMP280;34673;52.808;17.856;2022-12-24T03:14:49;99378.88;;;4.05
48854;BMP280;34673;52.808;17.856;2022-12-24T03:17:18;99382.25;;;4.04
48854;BMP280;34673;52.808;17.856;2022-12-24T03:19:45;99387.38;;;4.04
48854;BMP280;34673;52.808;17.856;2022-12-24T03:22:14;99384.81;;;4.00
48854;BMP280;34673;52.808;17.856;2022-12-24T03:24:43;99386.50;;;3.98
48854;BMP280;34673;52.808;17.856;2022-12-24T03:27:11;99383.94;;;3.95
48854;BMP280;34673;52.808;17.856;2022-12-24T03:29:39;99392.47;;;3.97
48854;BMP280;34673;52.808;17.856;2022-12-24T03:32:07;99392.47;;;3.94
48854;BMP280;34673;52.808;17.856;2022-12-24T03:34:34;99383.09;;;3.92
48854;BMP280;34673;52.808;17.856;2022-12-24T03:37:02;99385.63;;;3.93
48854;BMP280;34673;52.808;17.856;2022-12-24T03:39:29;99382.22;;;3.91
48854;BMP280;34673;52.808;17.856;2022-12-24T03:41:56;99378.81;;;3.92
48854;BMP280;34673;52.808;17.856;2022-12-24T03:44:23;99392.47;;;3.91
48854;BMP280;34673;52.808;17.856;2022-12-24T03:46:50;99390.75;;;3.90
48854;BMP280;34673;52.808;17.856;2022-12-24T03:49:17;99395.03;;;3.88
48854;BMP280;34673;52.808;17.856;2022-12-24T03:51:44;99399.28;;;3.86
48854;BMP280;34673;52.808;17.856;2022-12-24T03:54:12;99412.03;;;3.85
48854;BMP280;34673;52.808;17.856;2022-12-24T03:56:39;99398.38;;;3.80
48854;BMP280;34673;52.808;17.856;2022-12-24T03:59:06;99402.63;;;3.79
48854;BMP280;34673;52.808;17.856;2022-12-24T04:01:33;99402.63;;;3.79
48854;BMP280;34673;52.808;17.856;2022-12-24T04:04:00;99413.75;;;3.81
48854;BMP280;34673;52.808;17.856;2022-12-24T04:06:27;99412.88;;;3.79
48854;BMP280;34673;52.808;17.856;2022-12-24T04:08:54;99407.75;;;3.79
48854;BMP280;34673;52.808;17.856;2022-12-24T04:11:21;99387.25;;;3.64
48854;BMP280;34673;52.808;17.856;2022-12-24T04:13:48;99414.56;;;3.77
48854;BMP280;34673;52.808;17.856;2022-12-24T04:16:15;99420.56;;;3.77
48854;BMP280;34673;52.808;17.856;2022-12-24T04:18:43;99419.69;;;3.77
48854;BMP280;34673;52.808;17.856;2022-12-24T04:21:10;99424.78;;;3.77
48854;BMP280;34673;52.808;17.856;2022-12-24T04:23:39;99416.28;;;3.78
48854;BMP280;34673;52.808;17.856;2022-12-24T04:26:08;99421.41;;;3.75
48854;BMP280;34673;52.808;17.856;2022-12-24T04:28:36;99423.06;;;3.74
48854;BMP280;34673;52.808;17.856;2022-12-24T04:31:14;99418.81;;;3.73
48854;BMP280;34673;52.808;17.856;2022-12-24T04:33:42;99417.94;;;3.71
48854;BMP280;34673;52.808;17.856;2022-12-24T04:36:12;99414.53;;;3.71
48854;BMP280;34673;52.808;17.856;2022-12-24T04:38:40;99382.06;;;3.48
48854;BMP280;34673;52.808;17.856;2022-12-24T04:41:10;99422.19;;;3.66
48854;BMP280;34673;52.808;17.856;2022-12-24T04:43:48;99425.63;;;3.67
48854;BMP280;34673;52.808;17.856;2022-12-24T04:46:21;99427.31;;;3.66
48854;BMP280;34673;52.808;17.856;2022-12-24T04:48:51;99430.75;;;3.67
48854;BMP280;34673;52.808;17.856;2022-12-24T04:51:19;99433.28;;;3.67
48854;BMP280;34673;52.808;17.856;2022-12-24T04:53:46;99428.13;;;3.61
48854;BMP280;34673;52.808;17.856;2022-12-24T04:56:19;99429.84;;;3.59
48854;BMP280;34673;52.808;17.856;2022-12-24T04:58:47;99436.66;;;3.63
48854;BMP280;34673;52.808;17.856;2022-12-24T05:01:18;99436.66;;;3.63
48854;BMP280;34673;52.808;17.856;2022-12-24T05:03:46;99438.41;;;3.64
48854;BMP280;34673;52.808;17.856;2022-12-24T05:06:16;99438.34;;;3.61
48854;BMP280;34673;52.808;17.856;2022-12-24T05:08:43;99447.72;;;3.57
48854;BMP280;34673;52.808;17.856;2022-12-24T05:11:11;99448.56;;;3.58
48854;BMP280;34673;52.808;17.856;2022-12-24T05:13:42;99448.56;;;3.58
48854;BMP280;34673;52.808;17.856;2022-12-24T05:16:14;99448.56;;;3.58
48854;BMP280;34673;52.808;17.856;2022-12-24T05:18:42;99446.00;;;3.58
48854;BMP280;34673;52.808;17.856;2022-12-24T05:21:12;99441.75;;;3.57
48854;BMP280;34673;52.808;17.856;2022-12-24T05:23:40;99452.00;;;3.57
48854;BMP280;34673;52.808;17.856;2022-12-24T05:26:32;99448.59;;;3.59
48854;BMP280;34673;52.808;17.856;2022-12-24T05:29:01;99447.75;;;3.59
48854;BMP280;34673;52.808;17.856;2022-12-24T05:31:30;99452.00;;;3.60
48854;BMP280;34673;52.808;17.856;2022-12-24T05:33:57;99445.19;;;3.59
48854;BMP280;34673;52.808;17.856;2022-12-24T05:36:24;99445.16;;;3.55
48854;BMP280;34673;52.808;17.856;2022-12-24T05:38:52;99452.00;;;3.60
48854;BMP280;34673;52.808;17.856;2022-12-24T05:41:19;99452.00;;;3.63
48854;BMP280;34673;52.808;17.856;2022-12-24T05:43:46;99452.00;;;3.63
48854;BMP280;34673;52.808;17.856;2022-12-24T05:46:16;99456.28;;;3.62
48854;BMP280;34673;52.808;17.856;2022-12-24T05:48:45;99469.09;;;3.64
48854;BMP280;34673;52.808;17.856;2022-12-24T05:51:14;99479.31;;;3.64
48854;BMP280;34673;52.808;17.856;2022-12-24T05:53:45;99471.66;;;3.64
48854;BMP280;34673;52.808;17.856;2022-12-24T05:56:16;99476.75;;;3.64
48854;BMP280;34673;52.808;17.856;2022-12-24T05:58:43;99484.44;;;3.67
48854;BMP280;34673;52.808;17.856;2022-12-24T06:01:11;99475.88;;;3.62
48854;BMP280;34673;52.808;17.856;2022-12-24T06:03:39;99484.44;;;3.64
48854;BMP280;34673;52.808;17.856;2022-12-24T06:06:10;99477.56;;;3.60
48854;BMP280;34673;52.808;17.856;2022-12-24T06:08:38;99484.44;;;3.64
48854;BMP280;34673;52.808;17.856;2022-12-24T06:11:09;99491.22;;;3.62
48854;BMP280;34673;52.808;17.856;2022-12-24T06:13:37;99490.38;;;3.63
48854;BMP280;34673;52.808;17.856;2022-12-24T06:16:05;99489.53;;;3.62
48854;BMP280;34673;52.808;17.856;2022-12-24T06:18:34;99493.75;;;3.60
48854;BMP280;34673;52.808;17.856;2022-12-24T06:21:02;99503.16;;;3.60
48854;BMP280;34673;52.808;17.856;2022-12-24T06:23:33;99500.53;;;3.55
48854;BMP280;34673;52.808;17.856;2022-12-24T06:26:01;99506.50;;;3.55
48854;BMP280;34673;52.808;17.856;2022-12-24T06:28:30;99520.16;;;3.54
48854;BMP280;34673;52.808;17.856;2022-12-24T06:30:58;99518.44;;;3.53
48854;BMP280;34673;52.808;17.856;2022-12-24T06:33:30;99516.75;;;3.55
48854;BMP280;34673;52.808;17.856;2022-12-24T06:35:57;99520.16;;;3.58
48854;BMP280;34673;52.808;17.856;2022-12-24T06:38:25;99521.03;;;3.57
48854;BMP280;34673;52.808;17.856;2022-12-24T06:40:52;99520.16;;;3.58
48854;BMP280;34673;52.808;17.856;2022-12-24T06:43:21;99527.88;;;3.59
48854;BMP280;34673;52.808;17.856;2022-12-24T06:45:48;99533.81;;;3.57
48854;BMP280;34673;52.808;17.856;2022-12-24T06:48:16;99537.25;;;3.59
48854;BMP280;34673;52.808;17.856;2022-12-24T06:50:43;99549.19;;;3.60
48854;BMP280;34673;52.808;17.856;2022-12-24T06:53:10;99554.28;;;3.57
48854;BMP280;34673;52.808;17.856;2022-12-24T06:55:38;99550.88;;;3.59
48854;BMP280;34673;52.808;17.856;2022-12-24T06:58:05;99563.63;;;3.58
48854;BMP280;34673;52.808;17.856;2022-12-24T07:00:32;99557.69;;;3.59
48854;BMP280;34673;52.808;17.856;2022-12-24T07:02:59;99562.78;;;3.57
48854;BMP280;34673;52.808;17.856;2022-12-24T07:05:27;99566.19;;;3.58
48854;BMP280;34673;52.808;17.856;2022-12-24T07:07:55;99570.44;;;3.54
48854;BMP280;34673;52.808;17.856;2022-12-24T07:10:22;99578.09;;;3.55
48854;BMP280;34673;52.808;17.856;2022-12-24T07:12:49;99576.38;;;3.48
48854;BMP280;34673;52.808;17.856;2022-12-24T07:15:17;99583.19;;;3.52
48854;BMP280;34673;52.808;17.856;2022-12-24T07:17:44;99587.50;;;3.53
48854;BMP280;34673;52.808;17.856;2022-12-24T07:20:13;99595.13;;;3.50
48854;BMP280;34673;52.808;17.856;2022-12-24T07:22:41;99600.19;;;3.47
48854;BMP280;34673;52.808;17.856;2022-12-24T07:25:09;99601.88;;;3.44
48854;BMP280;34673;52.808;17.856;2022-12-24T07:27:37;99596.72;;;3.39
48854;BMP280;34673;52.808;17.856;2022-12-24T07:30:05;99605.28;;;3.41
48854;BMP280;34673;52.808;17.856;2022-12-24T07:32:32;99612.13;;;3.42
48854;BMP280;34673;52.808;17.856;2022-12-24T07:35:00;99611.25;;;3.43
48854;BMP280;34673;52.808;17.856;2022-12-24T07:37:27;99614.66;;;3.41
48854;BMP280;34673;52.808;17.856;2022-12-24T07:39:54;99618.88;;;3.39
48854;BMP280;34673;52.808;17.856;2022-12-24T07:42:21;99629.97;;;3.38
48854;BMP280;34673;52.808;17.856;2022-12-24T07:44:49;99635.94;;;3.37
48854;BMP280;34673;52.808;17.856;2022-12-24T07:47:16;99640.16;;;3.35
48854;BMP280;34673;52.808;17.856;2022-12-24T07:49:43;99645.25;;;3.33
48854;BMP280;34673;52.808;17.856;2022-12-24T07:52:11;99651.25;;;3.38
48854;BMP280;34673;52.808;17.856;2022-12-24T07:54:38;99655.50;;;3.35
48854;BMP280;34673;52.808;17.856;2022-12-24T07:57:05;99656.34;;;3.35
48854;BMP280;34673;52.808;17.856;2022-12-24T07:59:32;99666.56;;;3.35
48854;BMP280;34673;52.808;17.856;2022-12-24T08:01:59;99658.88;;;3.32
48854;BMP280;34673;52.808;17.856;2022-12-24T08:04:30;99664.81;;;3.31
48854;BMP280;34673;52.808;17.856;2022-12-24T08:06:58;99671.66;;;3.32
48854;BMP280;34673;52.808;17.856;2022-12-24T08:09:25;99670.00;;;3.34
48854;BMP280;34673;52.808;17.856;2022-12-24T08:11:52;99675.94;;;3.35
48854;BMP280;34673;52.808;17.856;2022-12-24T08:14:19;99683.59;;;3.33
48854;BMP280;34673;52.808;17.856;2022-12-24T08:16:46;99680.22;;;3.34
48854;BMP280;34673;52.808;17.856;2022-12-24T08:19:15;99653.56;;;3.14
48854;BMP280;34673;52.808;17.856;2022-12-24T08:21:42;99675.03;;;3.31
48854;BMP280;34673;52.808;17.856;2022-12-24T08:24:09;99683.56;;;3.30
48854;BMP280;34673;52.808;17.856;2022-12-24T08:26:36;99687.78;;;3.28
48854;BMP280;34673;52.808;17.856;2022-12-24T08:29:04;99690.38;;;3.31
48854;BMP280;34673;52.808;17.856;2022-12-24T08:31:32;99694.63;;;3.30
48854;BMP280;34673;52.808;17.856;2022-12-24T08:34:04;99704.00;;;3.28
48854;BMP280;34673;52.808;17.856;2022-12-24T08:36:31;99700.56;;;3.28
48854;BMP280;34673;52.808;17.856;2022-12-24T08:38:59;99701.44;;;3.27
48854;BMP280;34673;52.808;17.856;2022-12-24T08:41:29;99704.84;;;3.26
48854;BMP280;34673;52.808;17.856;2022-12-24T08:43:57;99691.16;;;3.21
48854;BMP280;34673;52.808;17.856;2022-12-24T08:46:24;99702.28;;;3.26
48854;BMP280;34673;52.808;17.856;2022-12-24T08:48:51;99710.78;;;3.28
48854;BMP280;34673;52.808;17.856;2022-12-24T08:51:18;99712.53;;;3.29
48854;BMP280;34673;52.808;17.856;2022-12-24T08:53:45;99716.81;;;3.31
48854;BMP280;34673;52.808;17.856;2022-12-24T08:56:13;99726.16;;;3.31
48854;BMP280;34673;52.808;17.856;2022-12-24T08:58:40;99723.66;;;3.34
48854;BMP280;34673;52.808;17.856;2022-12-24T09:01:12;99721.94;;;3.31
48854;BMP280;34673;52.808;17.856;2022-12-24T09:03:40;99731.28;;;3.31
48854;BMP280;34673;52.808;17.856;2022-12-24T09:06:08;99736.38;;;3.31
48854;BMP280;34673;52.808;17.856;2022-12-24T09:08:35;99732.97;;;3.29
48854;BMP280;34673;52.808;17.856;2022-12-24T09:11:11;99736.38;;;3.31
48854;BMP280;34673;52.808;17.856;2022-12-24T09:13:39;99738.13;;;3.32
48854;BMP280;34673;52.808;17.856;2022-12-24T09:16:07;99732.97;;;3.29
48854;BMP280;34673;52.808;17.856;2022-12-24T09:18:35;99741.56;;;3.34
48854;BMP280;34673;52.808;17.856;2022-12-24T09:21:05;99740.66;;;3.30
48854;BMP280;34673;52.808;17.856;2022-12-24T09:23:34;99740.66;;;3.30
48854;BMP280;34673;52.808;17.856;2022-12-24T09:26:29;99760.31;;;3.36
48854;BMP280;34673;52.808;17.856;2022-12-24T09:28:58;99740.66;;;3.30
48854;BMP280;34673;52.808;17.856;2022-12-24T09:31:27;99755.22;;;3.39
48854;BMP280;34673;52.808;17.856;2022-12-24T09:33:54;99756.13;;;3.43
48854;BMP280;34673;52.808;17.856;2022-12-24T09:36:21;99762.13;;;3.46
48854;BMP280;34673;52.808;17.856;2022-12-24T09:38:49;99769.81;;;3.45
48854;BMP280;34673;52.808;17.856;2022-12-24T09:46:47;99765.63;;;3.53
48854;BMP280;34673;52.808;17.856;2022-12-24T09:49:22;99761.41;;;3.57
48854;BMP280;34673;52.808;17.856;2022-12-24T09:52:00;99772.50;;;3.59
48854;BMP280;34673;52.808;17.856;2022-12-24T09:54:34;99760.50;;;3.51
48854;BMP280;34673;52.808;17.856;2022-12-24T09:57:16;99771.56;;;3.50
48854;BMP280;34673;52.808;17.856;2022-12-24T09:59:45;99778.41;;;3.54
48854;BMP280;34673;52.808;17.856;2022-12-24T10:02:15;99779.28;;;3.53
48854;BMP280;34673;52.808;17.856;2022-12-24T10:04:44;99783.53;;;3.53
48854;BMP280;34673;52.808;17.856;2022-12-24T10:12:59;99790.31;;;3.52
48854;BMP280;34673;52.808;17.856;2022-12-24T10:15:36;99791.22;;;3.54
48854;BMP280;34673;52.808;17.856;2022-12-24T10:20:59;99804.91;;;3.60
48854;BMP280;34673;52.808;17.856;2022-12-24T10:23:40;99810.03;;;3.63
48854;BMP280;34673;52.808;17.856;2022-12-24T10:26:22;99814.31;;;3.62
48854;BMP280;34673;52.808;17.856;2022-12-24T10:29:00;99818.56;;;3.62
48854;BMP280;34673;52.808;17.856;2022-12-24T10:31:38;99811.66;;;3.54
48854;BMP280;34673;52.808;17.856;2022-12-24T10:34:19;99821.91;;;3.58
48854;BMP280;34673;52.808;17.856;2022-12-24T10:36:48;99820.22;;;3.57
48854;BMP280;34673;52.808;17.856;2022-12-24T10:39:18;99828.78;;;3.59
48854;BMP280;34673;52.808;17.856;2022-12-24T10:41:51;99832.97;;;3.55
48854;BMP280;34673;52.808;17.856;2022-12-24T10:44:25;99844.97;;;3.59
48854;BMP280;34673;52.808;17.856;2022-12-24T10:46:53;99845.84;;;3.63
48854;BMP280;34673;52.808;17.856;2022-12-24T10:49:48;99845.84;;;3.63
48854;BMP280;34673;52.808;17.856;2022-12-24T10:52:24;99825.38;;;3.60
48854;BMP280;34673;52.808;17.856;2022-12-24T10:58:00;99843.34;;;3.69
48854;BMP280;34673;52.808;17.856;2022-12-24T11:00:28;99844.28;;;3.74
48854;BMP280;34673;52.808;17.856;2022-12-24T11:03:31;99861.31;;;3.73
48854;BMP280;34673;52.808;17.856;2022-12-24T11:06:04;99868.97;;;3.70
48854;BMP280;34673;52.808;17.856;2022-12-24T11:08:32;99874.94;;;3.71
48854;BMP280;34673;52.808;17.856;2022-12-24T11:11:10;99869.81;;;3.71
48854;BMP280;34673;52.808;17.856;2022-12-24T11:14:02;99876.69;;;3.72
48854;BMP280;34673;52.808;17.856;2022-12-24T11:16:31;99882.66;;;3.72
48854;BMP280;34673;52.808;17.856;2022-12-24T11:19:02;99879.16;;;3.69
48854;BMP280;34673;52.808;17.856;2022-12-24T11:21:33;99883.44;;;3.67
48854;BMP280;34673;52.808;17.856;2022-12-24T11:24:20;99883.41;;;3.64
48854;BMP280;34673;52.808;17.856;2022-12-24T11:26:50;99880.78;;;3.59
48854;BMP280;34673;52.808;17.856;2022-12-24T11:29:25;99891.84;;;3.60
48854;BMP280;34673;52.808;17.856;2022-12-24T11:32:23;99892.75;;;3.62
48854;BMP280;34673;52.808;17.856;2022-12-24T11:34:50;99888.50;;;3.64
48854;BMP280;34673;52.808;17.856;2022-12-24T11:37:23;99897.97;;;3.69
48854;BMP280;34673;52.808;17.856;2022-12-24T11:39:53;99900.56;;;3.74
48854;BMP280;34673;52.808;17.856;2022-12-24T11:44:54;99905.66;;;3.74
48854;BMP280;34673;52.808;17.856;2022-12-24T11:47:36;99908.31;;;3.82
48854;BMP280;34673;52.808;17.856;2022-12-24T12:01:27;99917.81;;;3.90
48854;BMP280;34673;52.808;17.856;2022-12-24T12:06:34;99919.59;;;3.97
48854;BMP280;34673;52.808;17.856;2022-12-24T12:09:11;99918.78;;;4.00
48854;BMP280;34673;52.808;17.856;2022-12-24T12:11:41;99921.31;;;3.98
48854;BMP280;34673;52.808;17.856;2022-12-24T12:14:17;99928.06;;;3.93
48854;BMP280;34673;52.808;17.856;2022-12-24T12:19:47;99924.66;;;3.91
48854;BMP280;34673;52.808;17.856;2022-12-24T12:22:28;99924.69;;;3.94
48854;BMP280;34673;52.808;17.856;2022-12-24T12:24:57;99931.50;;;3.95
48854;BMP280;34673;52.808;17.856;2022-12-24T12:27:38;99944.41;;;4.03
48854;BMP280;34673;52.808;17.856;2022-12-24T12:30:17;99951.22;;;4.03
48854;BMP280;34673;52.808;17.856;2022-12-24T12:35:44;99946.06;;;4.01
48854;BMP280;34673;52.808;17.856;2022-12-24T12:38:23;99955.50;;;4.04
48854;BMP280;34673;52.808;17.856;2022-12-24T12:41:07;99947.03;;;4.08
48854;BMP280;34673;52.808;17.856;2022-12-24T12:46:50;99941.91;;;4.08
48854;BMP280;34673;52.808;17.856;2022-12-24T12:52:16;99948.66;;;4.03
48854;BMP280;34673;52.808;17.856;2022-12-24T12:57:29;99961.41;;;3.98
48854;BMP280;34673;52.808;17.856;2022-12-24T13:00:09;99948.53;;;3.93
48854;BMP280;34673;52.808;17.856;2022-12-24T13:10:45;99970.53;;;3.79
48854;BMP280;34673;52.808;17.856;2022-12-24T13:18:50;99985.94;;;3.82
48854;BMP280;34673;52.808;17.856;2022-12-24T13:21:23;99996.13;;;3.79
48854;BMP280;34673;52.808;17.856;2022-12-24T13:24:14;100000.47;;;3.85
48854;BMP280;34673;52.808;17.856;2022-12-24T13:26:42;100002.19;;;3.87
48854;BMP280;34673;52.808;17.856;2022-12-24T13:29:29;99996.25;;;3.88
48854;BMP280;34673;52.808;17.856;2022-12-24T13:53:03;100024.31;;;3.81
48854;BMP280;34673;52.808;17.856;2022-12-24T13:55:32;100025.16;;;3.81
48854;BMP280;34673;52.808;17.856;2022-12-24T13:58:02;100032.00;;;3.84
48854;BMP280;34673;52.808;17.856;2022-12-24T14:00:50;100037.09;;;3.82
48854;BMP280;34673;52.808;17.856;2022-12-24T14:03:29;100029.34;;;3.76
48854;BMP280;34673;52.808;17.856;2022-12-24T14:06:01;100039.63;;;3.77
48854;BMP280;34673;52.808;17.856;2022-12-24T14:08:36;100050.66;;;3.76
48854;BMP280;34673;52.808;17.856;2022-12-24T14:11:18;100046.41;;;3.75
48854;BMP280;34673;52.808;17.856;2022-12-24T14:16:24;100055.72;;;3.72
48854;BMP280;34673;52.808;17.856;2022-12-24T14:19:12;100060.00;;;3.73
48854;BMP280;34673;52.808;17.856;2022-12-24T14:21:58;100061.72;;;3.72
48854;BMP280;34673;52.808;17.856;2022-12-24T14:24:33;100060.78;;;3.67
48854;BMP280;34673;52.808;17.856;2022-12-24T14:27:20;100072.75;;;3.70
48854;BMP280;34673;52.808;17.856;2022-12-24T14:33:29;100080.34;;;3.64
48854;BMP280;34673;52.808;17.856;2022-12-24T14:35:57;100093.13;;;3.64
48854;BMP280;34673;52.808;17.856;2022-12-24T14:38:25;100088.00;;;3.64
48854;BMP280;34673;52.808;17.856;2022-12-24T14:47:29;100097.22;;;3.54
48854;BMP280;34673;52.808;17.856;2022-12-24T14:55:47;100116.78;;;3.50
48854;BMP280;34673;52.808;17.856;2022-12-24T15:00:45;100123.56;;;3.48
48854;BMP280;34673;52.808;17.856;2022-12-24T15:03:14;100124.38;;;3.46
48854;BMP280;34673;52.808;17.856;2022-12-24T15:05:42;100118.22;;;3.36
48854;BMP280;34673;52.808;17.856;2022-12-24T15:08:15;100138.75;;;3.41
48854;BMP280;34673;52.808;17.856;2022-12-24T15:10:46;100150.69;;;3.40
48854;BMP280;34673;52.808;17.856;2022-12-24T15:13:35;100146.44;;;3.41
48854;BMP280;34673;52.808;17.856;2022-12-24T15:16:07;100138.72;;;3.39
48854;BMP280;34673;52.808;17.856;2022-12-24T15:18:38;100152.41;;;3.41
48854;BMP280;34673;52.808;17.856;2022-12-24T15:21:16;100153.25;;;3.42
48854;BMP280;34673;52.808;17.856;2022-12-24T15:23:49;100144.66;;;3.37
48854;BMP280;34673;52.808;17.856;2022-12-24T15:28:56;100150.59;;;3.34
48854;BMP280;34673;52.808;17.856;2022-12-24T15:31:30;100153.91;;;3.30
48854;BMP280;34673;52.808;17.856;2022-12-24T15:33:58;100155.56;;;3.28
48854;BMP280;34673;52.808;17.856;2022-12-24T15:36:34;100157.25;;;3.26
48854;BMP280;34673;52.808;17.856;2022-12-24T15:39:05;100157.25;;;3.26
48854;BMP280;34673;52.808;17.856;2022-12-24T15:41:40;100165.75;;;3.25
48854;BMP280;34673;52.808;17.856;2022-12-24T15:44:37;100165.75;;;3.25
48854;BMP280;34673;52.808;17.856;2022-12-24T15:47:13;100169.16;;;3.24
48854;BMP280;34673;52.808;17.856;2022-12-24T15:49:43;100164.78;;;3.20
48854;BMP280;34673;52.808;17.856;2022-12-24T15:52:16;100173.34;;;3.22
48854;BMP280;34673;52.808;17.856;2022-12-24T15:54:46;100171.66;;;3.21
48854;BMP280;34673;52.808;17.856;2022-12-24T15:57:31;100168.16;;;3.17
48854;BMP280;34673;52.808;17.856;2022-12-24T16:00:01;100159.47;;;3.09
48854;BMP280;34673;52.808;17.856;2022-12-24T16:08:00;100175.75;;;3.13
48854;BMP280;34673;52.808;17.856;2022-12-24T16:13:29;100184.13;;;3.05
48854;BMP280;34673;52.808;17.856;2022-12-24T16:16:03;100175.50;;;3.00
48854;BMP280;34673;52.808;17.856;2022-12-24T16:18:35;100190.81;;;3.00
48854;BMP280;34673;52.808;17.856;2022-12-24T16:21:04;100192.47;;;2.98
48854;BMP280;34673;52.808;17.856;2022-12-24T16:23:37;100189.06;;;2.96
48854;BMP280;34673;52.808;17.856;2022-12-24T16:26:05;100194.16;;;2.96
48854;BMP280;34673;52.808;17.856;2022-12-24T16:28:32;100183.88;;;2.93
48854;BMP280;34673;52.808;17.856;2022-12-24T16:30:59;100190.78;;;2.97
48854;BMP280;34673;52.808;17.856;2022-12-24T16:33:27;100192.44;;;2.95
48854;BMP280;34673;52.808;17.856;2022-12-24T16:35:55;100197.47;;;2.92
48854;BMP280;34673;52.808;17.856;2022-12-24T16:38:23;100200.94;;;2.94